This is the latest recevied weather packets stored in our database for station/object W2GRK-15. If no packets are shown the sender has not sent any weather packets the latest 10 day(s).
| Time | Temp. | Humidity | Pressure | Rain* | Wind** | Luminosity | Snow |
|---|---|---|---|---|---|---|---|
| 1777739428 | 13.89° C | 52% | 1013.1 hPa | 0 mm | - | 337 W/m² | - |
| 1777739057 | 13.89° C | 52% | 1013 hPa | 0 mm | - | 310 W/m² | - |
| 1777738526 | 13.89° C | 57% | 1012.8 hPa | 0 mm | - | 699 W/m² | - |
| 1777737930 | 13.33° C | 55% | 1012.9 hPa | 0 mm | - | 420 W/m² | - |
| 1777737270 | 14.44° C | 56% | 1012.9 hPa | 0 mm | - | 586 W/m² | - |
| 1777736920 | 13.89° C | 57% | 1013 hPa | 0 mm | - | 523 W/m² | - |
| 1777736610 | 13.89° C | 61% | 1013 hPa | 0 mm | - | 541 W/m² | - |
| 1777736565 | 13.33° C | 61% | 1013 hPa | 0 mm | - | 539 W/m² | - |
| 1777736368 | 13.33° C | 60% | 1013.1 hPa | 0 mm | - | 421 W/m² | - |
| 1777735949 | 12.78° C | 63% | 1013 hPa | 0 mm | - | 413 W/m² | - |
| 1777735068 | 12.78° C | 63% | 1013.2 hPa | 0 mm | - | 363 W/m² | - |
| 1777734870 | 12.22° C | 65% | 1013.2 hPa | 0 mm | - | 353 W/m² | - |
| 1777734761 | 12.78° C | 63% | 1013.2 hPa | 0 mm | - | 269 W/m² | - |
| 1777734387 | 12.22° C | 65% | 1013.1 hPa | 0 mm | - | 270 W/m² | - |
| 1777734081 | 12.22° C | 65% | 1013.1 hPa | 0 mm | - | 313 W/m² | - |
| 1777733775 | 12.22° C | 67% | 1013.1 hPa | 0 mm | - | 252 W/m² | - |
| 1777733200 | 11.67° C | 72% | 1013.2 hPa | 0 mm | - | 279 W/m² | - |
| 1777732761 | 11.67° C | 73% | 1013.1 hPa | 0 mm | - | 217 W/m² | - |
| 1777732520 | 11.67° C | 74% | 1013.4 hPa | 0 mm | - | 178 W/m² | - |
| 1777731924 | 11.67° C | 74% | 1013.2 hPa | 0 mm | - | 128 W/m² | - |
| 1777731747 | 11.67° C | 74% | 1013 hPa | 0 mm | - | 115 W/m² | - |
| 1777731022 | 11.67° C | 74% | 1013.2 hPa | 0 mm | - | 133 W/m² | - |
| 1777730297 | 11.67° C | 75% | 1013.1 hPa | 0 mm | - | 103 W/m² | - |
| 1777730184 | 11.67° C | 76% | 1013.1 hPa | 0 mm | - | 77 W/m² | - |
| 1777729415 | 11.67° C | 76% | 1013.1 hPa | 0 mm | - | 65 W/m² | - |
* Rain latest hour (hover to see other rain measurements)
** Current wind speed in m/s (hover to see current wind gust speed)